Terminal Aerodrome Forecast
Issued by NWS Sioux Falls, SD

Home | Current Version | Previous Version | Graphics & Text | Print | Product List | Glossary Off
Versions: 1 2 3 4 5 6 7 8 9 10 11 12 13 14 15 16 17 18 19 20 21 22 23

000
FTUS43 KFSD 231006 AAC
TAFFSD
TAF AMD
KFSD 231006Z 2310/2406 30011KT P6SM BKN006
     FM231400 01004KT P6SM BKN030
     FM232000 08007KT P6SM VCTS BKN050CB
     FM240000 07005KT P6SM OVC035
     FM240200 11007KT P6SM OVC050
     FM240500 13011KT P6SM BKN070=

USA.gov is the U.S. government's official web portal to all federal, state and local government web resources and services.